sensor_id;sensor_type;location;lat;lon;timestamp;pressure;altitude;pressure_sealevel;temperature;humidity
78206;BME280;67480;48.920;12.880;2023-04-30T00:01:19;97222.25;;;10.76;57.90
78206;BME280;67480;48.920;12.880;2023-04-30T00:03:44;97218.91;;;10.70;58.47
78206;BME280;67480;48.920;12.880;2023-04-30T00:06:09;97223.44;;;10.83;58.10
78206;BME280;67480;48.920;12.880;2023-04-30T00:08:35;97221.09;;;10.91;57.84
78206;BME280;67480;48.920;12.880;2023-04-30T00:11:00;97232.16;;;10.89;58.35
78206;BME280;67480;48.920;12.880;2023-04-30T00:13:25;97234.09;;;10.97;58.36
78206;BME280;67480;48.920;12.880;2023-04-30T00:15:50;97230.03;;;11.09;57.42
78206;BME280;67480;48.920;12.880;2023-04-30T00:18:16;97233.88;;;11.07;57.36
78206;BME280;67480;48.920;12.880;2023-04-30T00:20:41;97237.78;;;11.01;56.93
78206;BME280;67480;48.920;12.880;2023-04-30T00:23:06;97238.66;;;10.65;58.09
78206;BME280;67480;48.920;12.880;2023-04-30T00:25:32;97238.66;;;10.65;58.27
78206;BME280;67480;48.920;12.880;2023-04-30T00:27:57;97243.31;;;10.74;57.50
78206;BME280;67480;48.920;12.880;2023-04-30T00:30:22;97236.38;;;10.81;57.41
78206;BME280;67480;48.920;12.880;2023-04-30T00:32:47;97235.00;;;10.84;56.79
78206;BME280;67480;48.920;12.880;2023-04-30T00:35:13;97239.19;;;10.76;57.00
78206;BME280;67480;48.920;12.880;2023-04-30T00:37:38;97231.31;;;10.80;57.04
78206;BME280;67480;48.920;12.880;2023-04-30T00:40:04;97224.34;;;10.79;56.84
78206;BME280;67480;48.920;12.880;2023-04-30T00:42:29;97227.22;;;10.82;56.83
78206;BME280;67480;48.920;12.880;2023-04-30T00:44:55;97235.41;;;10.77;56.59
78206;BME280;67480;48.920;12.880;2023-04-30T00:47:20;97238.41;;;10.76;56.86
78206;BME280;67480;48.920;12.880;2023-04-30T00:49:46;97240.09;;;10.71;56.50
78206;BME280;67480;48.920;12.880;2023-04-30T00:52:12;97242.50;;;10.73;56.59
78206;BME280;67480;48.920;12.880;2023-04-30T00:54:37;97248.88;;;10.77;56.03
78206;BME280;67480;48.920;12.880;2023-04-30T00:57:04;97249.03;;;10.81;56.21
78206;BME280;67480;48.920;12.880;2023-04-30T00:59:30;97253.16;;;10.78;55.96
78206;BME280;67480;48.920;12.880;2023-04-30T01:01:55;97248.88;;;10.77;55.65
78206;BME280;67480;48.920;12.880;2023-04-30T01:04:21;97254.56;;;10.76;55.63
78206;BME280;67480;48.920;12.880;2023-04-30T01:06:46;97256.25;;;10.71;55.80
78206;BME280;67480;48.920;12.880;2023-04-30T01:09:12;97254.31;;;10.63;55.22
78206;BME280;67480;48.920;12.880;2023-04-30T01:17:16;97268.41;;;10.60;55.79
78206;BME280;67480;48.920;12.880;2023-04-30T01:19:45;97271.44;;;10.67;55.44
78206;BME280;67480;48.920;12.880;2023-04-30T01:28:08;97264.75;;;10.65;54.67
78206;BME280;67480;48.920;12.880;2023-04-30T01:30:35;97273.66;;;10.65;54.97
78206;BME280;67480;48.920;12.880;2023-04-30T01:33:01;97268.72;;;10.59;55.14
78206;BME280;67480;48.920;12.880;2023-04-30T01:38:41;97273.78;;;10.60;54.05
78206;BME280;67480;48.920;12.880;2023-04-30T01:41:30;97278.22;;;10.65;54.31
78206;BME280;67480;48.920;12.880;2023-04-30T01:44:16;97286.31;;;10.65;54.84
78206;BME280;67480;48.920;12.880;2023-04-30T01:46:56;97285.38;;;10.69;53.95
78206;BME280;67480;48.920;12.880;2023-04-30T01:52:31;97280.59;;;10.66;54.48
78206;BME280;67480;48.920;12.880;2023-04-30T01:55:19;97293.09;;;10.62;54.69
78206;BME280;67480;48.920;12.880;2023-04-30T01:58:02;97289.28;;;10.63;54.30
78206;BME280;67480;48.920;12.880;2023-04-30T02:00:29;97294.88;;;10.67;53.87
78206;BME280;67480;48.920;12.880;2023-04-30T02:02:55;97293.88;;;10.63;53.72
78206;BME280;67480;48.920;12.880;2023-04-30T02:05:21;97301.66;;;10.64;54.08
78206;BME280;67480;48.920;12.880;2023-04-30T02:07:48;97301.31;;;10.57;54.22
78206;BME280;67480;48.920;12.880;2023-04-30T02:10:15;97303.00;;;10.53;55.55
78206;BME280;67480;48.920;12.880;2023-04-30T02:12:40;97304.41;;;10.50;54.76
78206;BME280;67480;48.920;12.880;2023-04-30T02:15:06;97304.28;;;10.56;54.95
78206;BME280;67480;48.920;12.880;2023-04-30T02:17:32;97308.44;;;10.62;54.58
78206;BME280;67480;48.920;12.880;2023-04-30T02:19:58;97308.94;;;10.64;54.82
78206;BME280;67480;48.920;12.880;2023-04-30T02:22:23;97307.94;;;10.60;54.36
78206;BME280;67480;48.920;12.880;2023-04-30T02:24:49;97307.94;;;10.60;53.77
78206;BME280;67480;48.920;12.880;2023-04-30T02:27:15;97307.47;;;10.58;53.58
78206;BME280;67480;48.920;12.880;2023-04-30T02:29:40;97315.44;;;10.63;53.94
78206;BME280;67480;48.920;12.880;2023-04-30T02:32:06;97315.53;;;10.58;54.94
78206;BME280;67480;48.920;12.880;2023-04-30T02:34:31;97319.53;;;10.60;54.25
78206;BME280;67480;48.920;12.880;2023-04-30T02:36:56;97320.75;;;10.54;52.35
78206;BME280;67480;48.920;12.880;2023-04-30T02:39:22;97322.75;;;10.71;53.43
78206;BME280;67480;48.920;12.880;2023-04-30T02:41:47;97314.09;;;10.74;52.81
78206;BME280;67480;48.920;12.880;2023-04-30T02:44:12;97314.78;;;10.80;52.63
78206;BME280;67480;48.920;12.880;2023-04-30T02:46:38;97312.91;;;10.66;53.22
78206;BME280;67480;48.920;12.880;2023-04-30T02:49:03;97322.75;;;10.48;53.87
78206;BME280;67480;48.920;12.880;2023-04-30T02:51:28;97315.38;;;10.54;54.47
78206;BME280;67480;48.920;12.880;2023-04-30T02:53:54;97317.94;;;10.59;54.89
78206;BME280;67480;48.920;12.880;2023-04-30T02:56:19;97317.75;;;10.56;55.16
78206;BME280;67480;48.920;12.880;2023-04-30T02:58:45;97320.88;;;10.49;55.53
78206;BME280;67480;48.920;12.880;2023-04-30T03:01:10;97325.75;;;10.47;55.89
78206;BME280;67480;48.920;12.880;2023-04-30T03:03:36;97322.56;;;10.45;55.69
78206;BME280;67480;48.920;12.880;2023-04-30T03:06:01;97323.94;;;10.42;55.47
78206;BME280;67480;48.920;12.880;2023-04-30T03:08:27;97328.47;;;10.33;56.38
78206;BME280;67480;48.920;12.880;2023-04-30T03:10:52;97323.88;;;10.33;56.73
78206;BME280;67480;48.920;12.880;2023-04-30T03:13:17;97319.50;;;10.38;56.32
78206;BME280;67480;48.920;12.880;2023-04-30T03:15:43;97323.28;;;10.37;57.08
78206;BME280;67480;48.920;12.880;2023-04-30T03:18:09;97323.50;;;10.26;56.88
78206;BME280;67480;48.920;12.880;2023-04-30T03:20:35;97326.03;;;10.23;57.11
78206;BME280;67480;48.920;12.880;2023-04-30T03:23:00;97330.78;;;10.26;57.08
78206;BME280;67480;48.920;12.880;2023-04-30T03:25:25;97322.09;;;10.29;57.15
78206;BME280;67480;48.920;12.880;2023-04-30T03:27:50;97329.50;;;10.23;57.25
78206;BME280;67480;48.920;12.880;2023-04-30T03:30:16;97332.91;;;10.15;57.42
78206;BME280;67480;48.920;12.880;2023-04-30T03:32:41;97339.84;;;10.16;57.34
78206;BME280;67480;48.920;12.880;2023-04-30T03:35:07;97339.56;;;10.18;57.33
78206;BME280;67480;48.920;12.880;2023-04-30T03:37:32;97333.69;;;10.15;57.08
78206;BME280;67480;48.920;12.880;2023-04-30T03:39:58;97333.97;;;10.14;57.43
78206;BME280;67480;48.920;12.880;2023-04-30T03:42:23;97333.31;;;10.08;57.43
78206;BME280;67480;48.920;12.880;2023-04-30T03:44:48;97337.97;;;10.17;58.10
78206;BME280;67480;48.920;12.880;2023-04-30T03:47:14;97340.38;;;10.18;57.77
78206;BME280;67480;48.920;12.880;2023-04-30T03:49:39;97336.56;;;10.19;57.21
78206;BME280;67480;48.920;12.880;2023-04-30T03:52:04;97344.72;;;10.28;57.09
78206;BME280;67480;48.920;12.880;2023-04-30T03:54:31;97329.69;;;10.27;56.58
78206;BME280;67480;48.920;12.880;2023-04-30T03:56:58;97338.13;;;10.34;55.97
78206;BME280;67480;48.920;12.880;2023-04-30T03:59:23;97340.31;;;10.32;56.40
78206;BME280;67480;48.920;12.880;2023-04-30T04:01:50;97340.81;;;10.34;56.29
78206;BME280;67480;48.920;12.880;2023-04-30T04:04:15;97340.03;;;10.33;55.74
78206;BME280;67480;48.920;12.880;2023-04-30T04:06:41;97341.63;;;10.34;55.70
78206;BME280;67480;48.920;12.880;2023-04-30T04:09:06;97331.47;;;10.31;55.68
78206;BME280;67480;48.920;12.880;2023-04-30T04:11:31;97331.94;;;10.33;56.68
78206;BME280;67480;48.920;12.880;2023-04-30T04:13:58;97340.44;;;10.27;55.76
78206;BME280;67480;48.920;12.880;2023-04-30T04:16:23;97334.94;;;10.32;55.99
78206;BME280;67480;48.920;12.880;2023-04-30T04:18:48;97337.34;;;10.33;56.83
78206;BME280;67480;48.920;12.880;2023-04-30T04:21:14;97344.81;;;10.37;57.04
78206;BME280;67480;48.920;12.880;2023-04-30T04:23:40;97345.09;;;10.35;57.33
78206;BME280;67480;48.920;12.880;2023-04-30T04:26:05;97337.88;;;10.22;57.78
78206;BME280;67480;48.920;12.880;2023-04-30T04:28:31;97347.03;;;10.21;57.96
78206;BME280;67480;48.920;12.880;2023-04-30T04:30:56;97345.53;;;10.28;57.85
78206;BME280;67480;48.920;12.880;2023-04-30T04:33:22;97349.19;;;10.32;57.73
78206;BME280;67480;48.920;12.880;2023-04-30T04:35:47;97349.22;;;10.19;57.90
78206;BME280;67480;48.920;12.880;2023-04-30T04:38:12;97352.22;;;10.17;57.89
78206;BME280;67480;48.920;12.880;2023-04-30T04:40:39;97348.91;;;10.20;58.14
78206;BME280;67480;48.920;12.880;2023-04-30T04:43:05;97354.00;;;10.22;58.51
78206;BME280;67480;48.920;12.880;2023-04-30T04:45:31;97349.81;;;10.29;58.21
78206;BME280;67480;48.920;12.880;2023-04-30T04:47:57;97352.00;;;10.27;53.18
78206;BME280;67480;48.920;12.880;2023-04-30T04:50:23;97345.16;;;10.58;54.75
78206;BME280;67480;48.920;12.880;2023-04-30T04:52:48;97351.59;;;10.70;55.64
78206;BME280;67480;48.920;12.880;2023-04-30T04:55:14;97348.28;;;10.74;55.58
78206;BME280;67480;48.920;12.880;2023-04-30T04:57:39;97344.28;;;10.85;55.69
78206;BME280;67480;48.920;12.880;2023-04-30T05:00:07;97353.41;;;10.98;55.57
78206;BME280;67480;48.920;12.880;2023-04-30T05:02:33;97349.00;;;11.02;55.46
78206;BME280;67480;48.920;12.880;2023-04-30T05:04:58;97347.38;;;10.78;56.32
78206;BME280;67480;48.920;12.880;2023-04-30T05:07:24;97349.81;;;10.66;57.08
78206;BME280;67480;48.920;12.880;2023-04-30T05:09:49;97350.06;;;10.78;56.16
78206;BME280;67480;48.920;12.880;2023-04-30T05:12:15;97352.72;;;10.92;56.99
78206;BME280;67480;48.920;12.880;2023-04-30T05:14:40;97352.94;;;10.82;57.46
78206;BME280;67480;48.920;12.880;2023-04-30T05:17:05;97355.25;;;10.88;57.18
78206;BME280;67480;48.920;12.880;2023-04-30T05:19:31;97360.50;;;10.94;56.69
78206;BME280;67480;48.920;12.880;2023-04-30T05:21:57;97356.28;;;11.01;53.59
78206;BME280;67480;48.920;12.880;2023-04-30T05:24:22;97363.16;;;11.07;56.40
78206;BME280;67480;48.920;12.880;2023-04-30T05:26:47;97369.78;;;11.33;55.52
78206;BME280;67480;48.920;12.880;2023-04-30T05:29:13;97371.91;;;11.44;54.64
78206;BME280;67480;48.920;12.880;2023-04-30T05:31:38;97363.78;;;11.36;53.09
78206;BME280;67480;48.920;12.880;2023-04-30T05:34:04;97368.25;;;11.40;53.00
78206;BME280;67480;48.920;12.880;2023-04-30T05:36:30;97369.75;;;11.55;54.42
78206;BME280;67480;48.920;12.880;2023-04-30T05:38:56;97375.69;;;11.66;54.56
78206;BME280;67480;48.920;12.880;2023-04-30T05:41:22;97378.13;;;11.85;53.86
78206;BME280;67480;48.920;12.880;2023-04-30T05:43:47;97376.56;;;11.93;51.59
78206;BME280;67480;48.920;12.880;2023-04-30T05:46:12;97375.97;;;12.05;50.97
78206;BME280;67480;48.920;12.880;2023-04-30T05:48:37;97375.38;;;12.16;51.14
78206;BME280;67480;48.920;12.880;2023-04-30T05:51:03;97381.91;;;12.15;50.16
78206;BME280;67480;48.920;12.880;2023-04-30T05:53:30;97370.81;;;12.17;50.62
78206;BME280;67480;48.920;12.880;2023-04-30T05:55:56;97381.44;;;12.13;49.16
78206;BME280;67480;48.920;12.880;2023-04-30T05:58:21;97379.25;;;12.33;50.84
78206;BME280;67480;48.920;12.880;2023-04-30T06:00:50;97385.47;;;12.51;50.85
78206;BME280;67480;48.920;12.880;2023-04-30T06:03:17;97386.41;;;12.55;47.84
78206;BME280;67480;48.920;12.880;2023-04-30T06:05:42;97388.81;;;12.48;47.73
78206;BME280;67480;48.920;12.880;2023-04-30T06:08:08;97385.13;;;12.44;49.44
78206;BME280;67480;48.920;12.880;2023-04-30T06:10:34;97388.97;;;12.43;50.21
78206;BME280;67480;48.920;12.880;2023-04-30T06:12:59;97389.44;;;12.45;49.41
78206;BME280;67480;48.920;12.880;2023-04-30T06:15:24;97391.31;;;12.35;48.54
78206;BME280;67480;48.920;12.880;2023-04-30T06:17:49;97396.91;;;12.57;49.45
78206;BME280;67480;48.920;12.880;2023-04-30T06:20:15;97399.78;;;12.78;48.63
78206;BME280;67480;48.920;12.880;2023-04-30T06:22:40;97398.69;;;12.79;49.09
78206;BME280;67480;48.920;12.880;2023-04-30T06:25:06;97401.22;;;12.93;48.47
78206;BME280;67480;48.920;12.880;2023-04-30T06:27:31;97399.31;;;12.84;48.86
78206;BME280;67480;48.920;12.880;2023-04-30T06:29:57;97397.72;;;12.92;49.21
78206;BME280;67480;48.920;12.880;2023-04-30T06:32:22;97409.00;;;12.94;48.25
78206;BME280;67480;48.920;12.880;2023-04-30T06:34:48;97413.13;;;12.92;48.37
78206;BME280;67480;48.920;12.880;2023-04-30T06:37:13;97403.75;;;12.71;47.48
78206;BME280;67480;48.920;12.880;2023-04-30T06:39:38;97411.97;;;12.49;48.80
78206;BME280;67480;48.920;12.880;2023-04-30T06:42:03;97412.78;;;12.58;47.48
78206;BME280;67480;48.920;12.880;2023-04-30T06:44:29;97413.06;;;12.30;45.85
78206;BME280;67480;48.920;12.880;2023-04-30T06:46:54;97410.09;;;12.93;45.76
78206;BME280;67480;48.920;12.880;2023-04-30T06:49:19;97419.19;;;13.15;47.06
78206;BME280;67480;48.920;12.880;2023-04-30T06:51:45;97413.31;;;13.30;48.44
78206;BME280;67480;48.920;12.880;2023-04-30T06:54:10;97413.78;;;13.15;48.06
78206;BME280;67480;48.920;12.880;2023-04-30T06:56:35;97416.31;;;13.11;48.14
78206;BME280;67480;48.920;12.880;2023-04-30T06:59:01;97420.28;;;13.40;47.45
78206;BME280;67480;48.920;12.880;2023-04-30T07:01:26;97413.13;;;13.09;47.28
78206;BME280;67480;48.920;12.880;2023-04-30T07:03:51;97419.66;;;13.34;46.49
78206;BME280;67480;48.920;12.880;2023-04-30T07:06:19;97422.19;;;13.57;46.87
78206;BME280;67480;48.920;12.880;2023-04-30T07:08:45;97420.13;;;13.92;46.52
78206;BME280;67480;48.920;12.880;2023-04-30T07:11:10;97424.53;;;14.06;45.60
78206;BME280;67480;48.920;12.880;2023-04-30T07:13:37;97425.22;;;14.03;45.28
78206;BME280;67480;48.920;12.880;2023-04-30T07:16:03;97428.53;;;14.08;45.75
78206;BME280;67480;48.920;12.880;2023-04-30T07:18:29;97422.97;;;14.34;45.40
78206;BME280;67480;48.920;12.880;2023-04-30T07:20:54;97426.97;;;14.67;45.80
78206;BME280;67480;48.920;12.880;2023-04-30T07:23:19;97428.16;;;14.99;45.03
78206;BME280;67480;48.920;12.880;2023-04-30T07:25:45;97425.00;;;15.18;42.31
78206;BME280;67480;48.920;12.880;2023-04-30T07:28:10;97422.47;;;15.13;42.49
78206;BME280;67480;48.920;12.880;2023-04-30T07:30:36;97427.34;;;15.41;42.70
78206;BME280;67480;48.920;12.880;2023-04-30T07:33:01;97419.63;;;15.64;43.36
78206;BME280;67480;48.920;12.880;2023-04-30T07:35:27;97421.38;;;15.93;41.75
78206;BME280;67480;48.920;12.880;2023-04-30T07:37:52;97413.25;;;16.18;41.17
78206;BME280;67480;48.920;12.880;2023-04-30T07:40:17;97415.25;;;15.84;39.25
78206;BME280;67480;48.920;12.880;2023-04-30T07:42:43;97417.97;;;16.83;40.08
78206;BME280;67480;48.920;12.880;2023-04-30T07:45:09;97413.69;;;17.67;37.68
78206;BME280;67480;48.920;12.880;2023-04-30T07:47:35;97420.13;;;17.74;37.39
78206;BME280;67480;48.920;12.880;2023-04-30T07:50:00;97412.25;;;17.57;37.09
78206;BME280;67480;48.920;12.880;2023-04-30T07:52:26;97418.50;;;17.57;36.65
78206;BME280;67480;48.920;12.880;2023-04-30T07:54:51;97427.88;;;18.20;36.85
78206;BME280;67480;48.920;12.880;2023-04-30T07:57:16;97427.25;;;17.51;36.84
78206;BME280;67480;48.920;12.880;2023-04-30T07:59:42;97428.41;;;17.65;36.92
78206;BME280;67480;48.920;12.880;2023-04-30T08:02:08;97423.66;;;18.07;36.15
78206;BME280;67480;48.920;12.880;2023-04-30T08:04:33;97431.16;;;18.61;35.85
78206;BME280;67480;48.920;12.880;2023-04-30T08:06:59;97432.88;;;19.83;34.96
78206;BME280;67480;48.920;12.880;2023-04-30T08:09:25;97437.69;;;19.70;33.90
78206;BME280;67480;48.920;12.880;2023-04-30T08:11:51;97432.06;;;19.63;33.11
78206;BME280;67480;48.920;12.880;2023-04-30T08:14:17;97438.69;;;19.81;34.60
78206;BME280;67480;48.920;12.880;2023-04-30T08:16:42;97443.38;;;20.04;32.69
78206;BME280;67480;48.920;12.880;2023-04-30T08:19:08;97439.72;;;19.54;32.85
78206;BME280;67480;48.920;12.880;2023-04-30T08:21:33;97447.44;;;20.14;32.64
78206;BME280;67480;48.920;12.880;2023-04-30T08:23:58;97436.59;;;20.44;33.66
78206;BME280;67480;48.920;12.880;2023-04-30T08:26:24;97443.53;;;20.61;33.37
78206;BME280;67480;48.920;12.880;2023-04-30T08:28:50;97440.56;;;20.73;33.04
78206;BME280;67480;48.920;12.880;2023-04-30T08:31:16;97438.16;;;20.68;33.09
78206;BME280;67480;48.920;12.880;2023-04-30T08:33:41;97440.19;;;20.75;33.45
78206;BME280;67480;48.920;12.880;2023-04-30T08:36:07;97438.88;;;20.92;31.68
78206;BME280;67480;48.920;12.880;2023-04-30T08:38:32;97439.03;;;21.06;31.58
78206;BME280;67480;48.920;12.880;2023-04-30T08:41:24;97434.97;;;21.23;30.27
78206;BME280;67480;48.920;12.880;2023-04-30T08:43:51;97438.06;;;21.22;31.19
78206;BME280;67480;48.920;12.880;2023-04-30T08:46:19;97436.69;;;21.73;30.57
78206;BME280;67480;48.920;12.880;2023-04-30T08:48:44;97440.34;;;22.81;27.34
78206;BME280;67480;48.920;12.880;2023-04-30T08:51:12;97444.66;;;25.03;26.64
78206;BME280;67480;48.920;12.880;2023-04-30T08:53:39;97446.06;;;26.17;24.28
78206;BME280;67480;48.920;12.880;2023-04-30T08:56:05;97452.84;;;27.30;23.05
78206;BME280;67480;48.920;12.880;2023-04-30T08:58:30;97458.66;;;28.25;21.42
78206;BME280;67480;48.920;12.880;2023-04-30T09:01:00;97448.34;;;26.71;21.84
78206;BME280;67480;48.920;12.880;2023-04-30T09:03:26;97446.44;;;26.19;24.70
78206;BME280;67480;48.920;12.880;2023-04-30T09:05:53;97451.00;;;24.82;25.67
78206;BME280;67480;48.920;12.880;2023-04-30T09:08:39;97445.53;;;24.31;24.59
78206;BME280;67480;48.920;12.880;2023-04-30T09:11:29;97447.41;;;23.70;25.34
78206;BME280;67480;48.920;12.880;2023-04-30T09:13:59;97446.69;;;21.24;24.72
78206;BME280;67480;48.920;12.880;2023-04-30T09:16:26;97446.16;;;20.08;27.06
78206;BME280;67480;48.920;12.880;2023-04-30T09:18:51;97437.84;;;19.58;28.07
78206;BME280;67480;48.920;12.880;2023-04-30T09:21:30;97439.72;;;20.19;29.16
78206;BME280;67480;48.920;12.880;2023-04-30T09:23:57;97433.63;;;22.19;27.38
78206;BME280;67480;48.920;12.880;2023-04-30T09:26:33;97451.75;;;23.85;24.71
78206;BME280;67480;48.920;12.880;2023-04-30T09:28:59;97447.88;;;24.58;22.71
78206;BME280;67480;48.920;12.880;2023-04-30T09:31:25;97450.94;;;23.66;23.90
78206;BME280;67480;48.920;12.880;2023-04-30T09:33:51;97444.69;;;22.33;25.82
78206;BME280;67480;48.920;12.880;2023-04-30T09:36:17;97436.59;;;20.98;28.30
78206;BME280;67480;48.920;12.880;2023-04-30T09:38:42;97444.28;;;20.35;28.97
78206;BME280;67480;48.920;12.880;2023-04-30T09:41:24;97447.91;;;19.54;30.19
78206;BME280;67480;48.920;12.880;2023-04-30T09:43:50;97448.47;;;19.43;29.81
78206;BME280;67480;48.920;12.880;2023-04-30T09:46:18;97444.13;;;18.84;30.05
78206;BME280;67480;48.920;12.880;2023-04-30T09:48:43;97436.72;;;19.00;31.67
78206;BME280;67480;48.920;12.880;2023-04-30T09:51:09;97435.72;;;18.92;31.45
78206;BME280;67480;48.920;12.880;2023-04-30T09:53:36;97439.38;;;18.81;32.11
78206;BME280;67480;48.920;12.880;2023-04-30T09:56:06;97433.91;;;18.29;31.13
78206;BME280;67480;48.920;12.880;2023-04-30T09:58:35;97436.56;;;18.26;32.19
78206;BME280;67480;48.920;12.880;2023-04-30T10:01:04;97431.81;;;18.23;32.21
78206;BME280;67480;48.920;12.880;2023-04-30T10:03:31;97425.31;;;18.27;32.97
78206;BME280;67480;48.920;12.880;2023-04-30T10:05:58;97429.00;;;18.19;32.22
78206;BME280;67480;48.920;12.880;2023-04-30T10:08:35;97426.25;;;18.03;32.13
78206;BME280;67480;48.920;12.880;2023-04-30T10:11:05;97423.53;;;18.03;31.84
78206;BME280;67480;48.920;12.880;2023-04-30T10:13:34;97417.56;;;17.81;31.61
78206;BME280;67480;48.920;12.880;2023-04-30T10:18:49;97423.88;;;17.70;31.68
78206;BME280;67480;48.920;12.880;2023-04-30T10:21:16;97418.00;;;17.83;31.70
78206;BME280;67480;48.920;12.880;2023-04-30T10:23:43;97411.84;;;18.02;31.32
78206;BME280;67480;48.920;12.880;2023-04-30T10:26:09;97412.94;;;18.14;32.48
78206;BME280;67480;48.920;12.880;2023-04-30T10:28:38;97414.66;;;18.54;31.59
78206;BME280;67480;48.920;12.880;2023-04-30T10:31:06;97412.19;;;18.84;28.27
78206;BME280;67480;48.920;12.880;2023-04-30T10:33:40;97415.03;;;19.07;29.64
78206;BME280;67480;48.920;12.880;2023-04-30T10:36:12;97408.56;;;19.35;29.81
78206;BME280;67480;48.920;12.880;2023-04-30T10:38:39;97413.66;;;19.17;31.54
78206;BME280;67480;48.920;12.880;2023-04-30T10:41:05;97402.09;;;19.24;31.10
78206;BME280;67480;48.920;12.880;2023-04-30T10:43:32;97413.09;;;19.08;30.18
78206;BME280;67480;48.920;12.880;2023-04-30T10:48:25;97402.28;;;18.96;30.80
78206;BME280;67480;48.920;12.880;2023-04-30T10:51:00;97399.38;;;18.49;31.58
78206;BME280;67480;48.920;12.880;2023-04-30T10:53:29;97396.41;;;18.07;31.64
78206;BME280;67480;48.920;12.880;2023-04-30T10:56:04;97400.47;;;17.37;33.25
78206;BME280;67480;48.920;12.880;2023-04-30T10:58:34;97393.63;;;17.15;34.20
78206;BME280;67480;48.920;12.880;2023-04-30T11:03:33;97399.88;;;17.43;33.56
78206;BME280;67480;48.920;12.880;2023-04-30T11:05:59;97396.50;;;17.94;31.62
78206;BME280;67480;48.920;12.880;2023-04-30T11:08:38;97395.53;;;19.91;29.79
78206;BME280;67480;48.920;12.880;2023-04-30T11:11:04;97398.63;;;20.92;28.20
78206;BME280;67480;48.920;12.880;2023-04-30T11:13:59;97387.28;;;22.55;25.81
78206;BME280;67480;48.920;12.880;2023-04-30T11:16:29;97396.41;;;24.33;24.01
78206;BME280;67480;48.920;12.880;2023-04-30T11:19:05;97394.44;;;23.98;24.72
78206;BME280;67480;48.920;12.880;2023-04-30T11:21:31;97394.41;;;22.70;25.96
78206;BME280;67480;48.920;12.880;2023-04-30T11:24:03;97400.31;;;23.68;25.42
78206;BME280;67480;48.920;12.880;2023-04-30T11:26:28;97388.94;;;24.55;23.77
78206;BME280;67480;48.920;12.880;2023-04-30T11:28:54;97397.81;;;25.84;22.94
78206;BME280;67480;48.920;12.880;2023-04-30T11:31:20;97396.72;;;26.68;23.11
78206;BME280;67480;48.920;12.880;2023-04-30T11:33:46;97395.09;;;24.96;23.07
78206;BME280;67480;48.920;12.880;2023-04-30T11:36:13;97393.94;;;23.45;24.52
78206;BME280;67480;48.920;12.880;2023-04-30T11:38:38;97397.19;;;23.94;24.46
78206;BME280;67480;48.920;12.880;2023-04-30T11:41:05;97393.13;;;27.06;22.13
78206;BME280;67480;48.920;12.880;2023-04-30T11:43:32;97404.66;;;25.61;22.65
78206;BME280;67480;48.920;12.880;2023-04-30T11:46:12;97390.88;;;24.62;24.65
78206;BME280;67480;48.920;12.880;2023-04-30T11:48:43;97383.44;;;24.34;23.43
78206;BME280;67480;48.920;12.880;2023-04-30T11:51:18;97384.63;;;23.86;25.32
78206;BME280;67480;48.920;12.880;2023-04-30T11:53:48;97378.63;;;25.70;23.07
78206;BME280;67480;48.920;12.880;2023-04-30T11:56:22;97388.53;;;23.85;23.46
78206;BME280;67480;48.920;12.880;2023-04-30T11:58:49;97385.69;;;23.45;24.71
78206;BME280;67480;48.920;12.880;2023-04-30T12:01:16;97377.63;;;22.20;25.19
78206;BME280;67480;48.920;12.880;2023-04-30T12:03:43;97378.19;;;23.24;24.89
78206;BME280;67480;48.920;12.880;2023-04-30T12:06:10;97377.53;;;23.78;25.39
78206;BME280;67480;48.920;12.880;2023-04-30T12:08:35;97368.72;;;23.07;24.88
78206;BME280;67480;48.920;12.880;2023-04-30T12:11:01;97373.00;;;26.36;20.90
78206;BME280;67480;48.920;12.880;2023-04-30T12:13:30;97371.28;;;27.19;18.67
78206;BME280;67480;48.920;12.880;2023-04-30T12:15:59;97369.78;;;26.80;19.54
78206;BME280;67480;48.920;12.880;2023-04-30T12:18:25;97368.53;;;23.99;20.87
78206;BME280;67480;48.920;12.880;2023-04-30T12:20:51;97367.97;;;23.21;22.26
78206;BME280;67480;48.920;12.880;2023-04-30T12:23:17;97369.25;;;25.60;20.49
78206;BME280;67480;48.920;12.880;2023-04-30T12:25:42;97372.50;;;25.37;20.03
78206;BME280;67480;48.920;12.880;2023-04-30T12:28:08;97369.72;;;26.45;19.16
78206;BME280;67480;48.920;12.880;2023-04-30T12:30:34;97375.34;;;27.69;18.62
78206;BME280;67480;48.920;12.880;2023-04-30T12:33:00;97357.94;;;26.41;18.25
78206;BME280;67480;48.920;12.880;2023-04-30T12:35:28;97350.00;;;24.50;21.05
78206;BME280;67480;48.920;12.880;2023-04-30T12:38:06;97348.91;;;22.62;23.52
78206;BME280;67480;48.920;12.880;2023-04-30T12:40:32;97345.53;;;21.72;26.11
78206;BME280;67480;48.920;12.880;2023-04-30T12:43:05;97348.88;;;23.90;22.10
78206;BME280;67480;48.920;12.880;2023-04-30T12:48:11;97340.88;;;25.59;22.21
78206;BME280;67480;48.920;12.880;2023-04-30T12:50:36;97337.09;;;24.03;23.36
78206;BME280;67480;48.920;12.880;2023-04-30T12:53:04;97334.00;;;22.00;26.14
78206;BME280;67480;48.920;12.880;2023-04-30T12:55:30;97333.44;;;21.77;27.04
78206;BME280;67480;48.920;12.880;2023-04-30T12:58:21;97335.22;;;20.87;27.50
78206;BME280;67480;48.920;12.880;2023-04-30T13:00:49;97325.72;;;20.20;26.72
78206;BME280;67480;48.920;12.880;2023-04-30T13:03:16;97318.53;;;20.08;25.33
78206;BME280;67480;48.920;12.880;2023-04-30T13:05:54;97323.66;;;21.01;26.04
78206;BME280;67480;48.920;12.880;2023-04-30T13:08:20;97316.28;;;21.83;22.95
78206;BME280;67480;48.920;12.880;2023-04-30T13:10:46;97315.75;;;26.02;20.34
78206;BME280;67480;48.920;12.880;2023-04-30T13:13:14;97332.00;;;31.20;16.45
78206;BME280;67480;48.920;12.880;2023-04-30T13:15:41;97326.91;;;28.55;16.68
78206;BME280;67480;48.920;12.880;2023-04-30T13:18:07;97317.50;;;26.27;18.47